createdAt,value
2023-01-03T00:01:38.803Z,19.83
2023-01-03T00:04:06.823Z,18.17
2023-01-03T00:06:37.934Z,31.30
2023-01-03T00:09:09.564Z,23.10
2023-01-03T00:11:57.725Z,17.20
2023-01-03T00:14:29.442Z,12.15
2023-01-03T00:16:59.657Z,11.75
2023-01-03T00:19:28.899Z,15.23
2023-01-03T00:21:56.947Z,14.40
2023-01-03T00:24:24.886Z,15.38
2023-01-03T00:26:52.446Z,11.57
2023-01-03T00:29:20.254Z,18.35
2023-01-03T00:31:48.432Z,15.15
2023-01-03T00:34:16.073Z,12.70
2023-01-03T00:36:43.732Z,10.25
2023-01-03T00:39:14.706Z,14.63
2023-01-03T00:41:42.907Z,10.85
2023-01-03T00:44:12.987Z,9.98
2023-01-03T00:46:42.070Z,7.97
2023-01-03T00:49:10.502Z,8.57
2023-01-03T00:51:40.198Z,8.73
2023-01-03T00:54:09.049Z,6.70
2023-01-03T00:56:39.650Z,7.65
2023-01-03T00:59:08.216Z,8.98
2023-01-03T01:01:46.293Z,8.30
2023-01-03T01:04:24.885Z,11.38
2023-01-03T01:06:59.091Z,10.35
2023-01-03T01:09:36.881Z,6.22
2023-01-03T01:12:07.385Z,7.97
2023-01-03T01:14:35.104Z,6.88
2023-01-03T01:17:05.601Z,6.55
2023-01-03T01:19:36.476Z,5.88
2023-01-03T01:22:04.979Z,7.00
2023-01-03T01:24:33.568Z,6.70
2023-01-03T01:27:01.303Z,6.90
2023-01-03T01:29:29.058Z,7.93
2023-01-03T01:31:57.132Z,9.57
2023-01-03T01:34:24.948Z,8.55
2023-01-03T01:36:52.925Z,9.85
2023-01-03T01:39:22.894Z,7.50
2023-01-03T01:42:19.038Z,10.27
2023-01-03T01:44:53.276Z,10.18
2023-01-03T01:47:29.150Z,11.38
2023-01-03T01:50:16.991Z,8.65
2023-01-03T01:53:01.998Z,8.10
2023-01-03T01:55:40.483Z,9.95
2023-01-03T01:58:09.825Z,10.82
2023-01-03T02:00:37.959Z,8.13
2023-01-03T02:03:05.824Z,54.60
2023-01-03T02:05:37.095Z,56.03
2023-01-03T02:08:05.141Z,26.35
2023-01-03T02:10:41.596Z,23.40
2023-01-03T02:13:15.059Z,19.48
2023-01-03T02:16:13.294Z,23.15
2023-01-03T02:18:47.138Z,13.73
2023-01-03T02:21:43.385Z,23.38
2023-01-03T02:24:23.280Z,17.77
2023-01-03T02:27:20.099Z,21.50
2023-01-03T02:30:14.692Z,16.98
2023-01-03T02:33:01.913Z,22.58
2023-01-03T02:35:40.013Z,23.00
2023-01-03T02:38:24.960Z,16.88
2023-01-03T02:41:06.005Z,22.83
2023-01-03T02:43:42.757Z,18.42
2023-01-03T02:46:33.595Z,18.75
2023-01-03T02:49:07.107Z,18.00
2023-01-03T02:51:47.664Z,20.08
2023-01-03T02:54:20.636Z,21.70
2023-01-03T02:56:54.702Z,16.48
2023-01-03T02:59:32.902Z,57.25
2023-01-03T03:02:02.423Z,14.43
2023-01-03T03:04:32.982Z,14.13
2023-01-03T03:07:13.710Z,19.08
2023-01-03T03:09:59.891Z,14.60
2023-01-03T03:12:50.169Z,18.88
2023-01-03T03:15:23.038Z,20.73
2023-01-03T03:17:57.335Z,13.25
2023-01-03T03:20:43.476Z,13.57
2023-01-03T03:23:34.243Z,18.77
2023-01-03T03:26:14.905Z,35.40
2023-01-03T03:28:49.058Z,27.90
2023-01-03T03:31:30.221Z,24.27
2023-01-03T03:34:15.981Z,16.60
2023-01-03T03:36:52.538Z,14.85
2023-01-03T03:39:40.007Z,18.73
2023-01-03T03:42:46.918Z,27.80
2023-01-03T03:45:24.986Z,26.15
2023-01-03T03:48:04.545Z,13.60
2023-01-03T03:50:41.271Z,16.50
2023-01-03T03:53:11.669Z,15.27
2023-01-03T03:55:49.689Z,12.73
2023-01-03T03:58:40.573Z,11.57
2023-01-03T04:01:11.735Z,14.77
2023-01-03T04:03:41.736Z,19.23
2023-01-03T04:06:26.873Z,21.98
2023-01-03T04:08:54.711Z,20.50
2023-01-03T04:11:22.363Z,26.33
2023-01-03T04:13:50.255Z,15.25
2023-01-03T04:16:18.496Z,10.30
2023-01-03T04:18:46.161Z,11.70
2023-01-03T04:21:20.225Z,11.38
2023-01-03T04:23:48.778Z,11.93
2023-01-03T04:26:16.821Z,7.65
2023-01-03T04:28:44.526Z,10.15
2023-01-03T04:31:12.241Z,10.15
2023-01-03T04:33:39.849Z,8.38
2023-01-03T04:36:07.977Z,28.60
2023-01-03T04:38:35.566Z,34.25
2023-01-03T04:41:08.129Z,46.13
2023-01-03T04:43:54.764Z,49.40
2023-01-03T04:46:23.040Z,50.67
2023-01-03T04:48:50.756Z,25.92
2023-01-03T04:51:18.335Z,30.55
2023-01-03T04:53:46.189Z,41.85
2023-01-03T04:56:13.821Z,66.15
2023-01-03T04:58:41.387Z,71.55
2023-01-03T05:01:09.232Z,63.00
2023-01-03T05:03:38.092Z,38.63
2023-01-03T05:06:08.332Z,43.40
2023-01-03T05:08:36.164Z,33.10
2023-01-03T05:11:03.947Z,35.75
2023-01-03T05:13:32.844Z,29.83
2023-01-03T05:16:08.806Z,30.23
2023-01-03T05:18:36.809Z,24.90
2023-01-03T05:21:35.261Z,27.58
2023-01-03T05:24:21.817Z,23.55
2023-01-03T05:26:50.332Z,32.90
2023-01-03T05:29:20.908Z,34.03
2023-01-03T05:31:49.073Z,25.85
2023-01-03T05:34:16.740Z,45.20
2023-01-03T05:36:44.539Z,18.40
2023-01-03T05:39:12.282Z,23.90
2023-01-03T05:41:58.269Z,27.35
2023-01-03T05:44:27.022Z,21.85
2023-01-03T05:46:54.636Z,16.77
2023-01-03T05:49:22.247Z,15.25
2023-01-03T05:51:49.943Z,16.33
2023-01-03T05:54:18.856Z,17.45
2023-01-03T05:56:46.957Z,13.13
2023-01-03T05:59:15.120Z,14.27
2023-01-03T06:01:42.846Z,11.93
2023-01-03T06:04:10.537Z,18.60
2023-01-03T06:06:38.372Z,10.65
2023-01-03T06:09:06.421Z,15.52
2023-01-03T06:11:33.979Z,23.65
2023-01-03T06:14:01.604Z,15.32
2023-01-03T06:16:47.829Z,20.20
2023-01-03T06:19:15.453Z,12.82
2023-01-03T06:21:43.309Z,21.17
2023-01-03T06:24:11.431Z,18.02
2023-01-03T06:26:38.986Z,16.77
2023-01-03T06:29:07.005Z,17.63
2023-01-03T06:31:34.746Z,17.25
2023-01-03T06:34:03.571Z,9.52
2023-01-03T06:36:33.982Z,13.07
2023-01-03T06:39:02.221Z,32.67
2023-01-03T06:41:29.839Z,38.13
2023-01-03T06:43:57.384Z,39.55
2023-01-03T06:46:45.518Z,31.95
2023-01-03T06:49:37.015Z,31.83
2023-01-03T06:52:24.972Z,22.33
2023-01-03T06:54:54.001Z,24.80
2023-01-03T06:57:26.526Z,23.77
2023-01-03T06:59:55.700Z,23.38
2023-01-03T07:02:23.611Z,15.32
2023-01-03T07:04:51.389Z,22.42
2023-01-03T07:07:19.149Z,25.77
2023-01-03T07:09:46.673Z,28.70
2023-01-03T07:12:36.344Z,42.33
2023-01-03T07:15:04.668Z,36.83
2023-01-03T07:17:32.391Z,49.35
2023-01-03T07:20:00.046Z,32.60
2023-01-03T07:22:28.187Z,38.80
2023-01-03T07:24:55.817Z,32.88
2023-01-03T07:27:23.383Z,28.83
2023-01-03T07:29:50.969Z,27.27
2023-01-03T07:32:18.472Z,42.75
2023-01-03T07:34:46.131Z,36.47
2023-01-03T07:37:13.680Z,33.38
2023-01-03T07:39:41.591Z,25.08
2023-01-03T07:42:27.692Z,21.67
2023-01-03T07:44:55.786Z,23.55
2023-01-03T07:47:23.441Z,24.25
2023-01-03T07:49:50.958Z,25.55
2023-01-03T07:52:18.621Z,22.90
2023-01-03T07:54:47.507Z,22.45
2023-01-03T07:57:15.556Z,21.88
2023-01-03T07:59:43.339Z,22.90
2023-01-03T08:02:11.072Z,15.52
2023-01-03T08:04:38.762Z,16.85
2023-01-03T08:07:06.428Z,22.58
2023-01-03T08:09:52.494Z,17.95
2023-01-03T08:12:38.420Z,14.68
2023-01-03T08:15:06.544Z,23.48
2023-01-03T08:17:34.132Z,22.70
2023-01-03T08:20:01.717Z,15.57
2023-01-03T08:22:29.699Z,19.15
2023-01-03T08:24:57.299Z,20.77
2023-01-03T08:27:24.958Z,19.33
2023-01-03T08:29:52.520Z,22.65
2023-01-03T08:32:21.319Z,34.25
2023-01-03T08:34:49.837Z,31.45
2023-01-03T08:37:18.250Z,33.28
2023-01-03T08:39:59.986Z,27.17
2023-01-03T08:42:28.027Z,23.58
2023-01-03T08:45:06.624Z,20.00
2023-01-03T08:47:34.631Z,24.17
2023-01-03T08:50:02.487Z,26.27
2023-01-03T08:52:34.975Z,22.55
2023-01-03T08:55:04.170Z,25.15
2023-01-03T08:57:32.066Z,25.27
2023-01-03T08:59:59.658Z,40.80
2023-01-03T09:02:27.616Z,47.75
2023-01-03T09:04:55.420Z,24.13
2023-01-03T09:07:23.066Z,25.13
2023-01-03T09:09:50.710Z,23.00
2023-01-03T09:12:18.256Z,23.83
2023-01-03T09:14:45.855Z,42.80
2023-01-03T09:17:13.425Z,31.92
2023-01-03T09:19:41.051Z,29.48
2023-01-03T09:22:08.613Z,23.73
2023-01-03T09:24:37.219Z,19.55
2023-01-03T09:27:04.785Z,28.33
2023-01-03T09:29:32.381Z,30.58
2023-01-03T09:32:03.413Z,30.63
2023-01-03T09:34:31.179Z,24.67
2023-01-03T09:36:58.811Z,23.25
2023-01-03T09:39:26.348Z,18.48
2023-01-03T09:42:12.437Z,27.25
2023-01-03T09:44:41.000Z,22.67
2023-01-03T09:47:18.204Z,25.08
2023-01-03T09:50:18.412Z,30.65
2023-01-03T09:52:53.304Z,25.15
2023-01-03T09:56:16.575Z,21.90
2023-01-03T09:59:27.008Z,16.05
2023-01-03T10:02:31.827Z,26.98
2023-01-03T10:05:32.454Z,21.00
2023-01-03T10:08:08.948Z,23.73
2023-01-03T10:11:09.316Z,17.35
2023-01-03T10:13:52.104Z,23.65
2023-01-03T10:16:48.097Z,23.85
2023-01-03T10:19:35.723Z,23.40
2023-01-03T10:22:09.436Z,19.40
2023-01-03T10:24:45.027Z,24.42
2023-01-03T10:27:15.653Z,22.20
2023-01-03T10:29:45.245Z,29.63
2023-01-03T10:32:27.931Z,32.35
2023-01-03T10:35:15.170Z,33.70
2023-01-03T10:37:43.401Z,43.72
2023-01-03T10:40:12.303Z,40.88
2023-01-03T10:42:42.310Z,26.08
2023-01-03T10:45:21.259Z,24.77
2023-01-03T10:48:02.114Z,24.42
2023-01-03T10:50:30.434Z,25.33
2023-01-03T10:53:03.894Z,28.13
2023-01-03T10:55:34.793Z,16.67
2023-01-03T10:58:13.615Z,18.70
2023-01-03T11:00:43.150Z,18.65
2023-01-03T11:03:18.767Z,19.60
2023-01-03T11:05:57.218Z,17.48
2023-01-03T11:08:35.794Z,17.25
2023-01-03T11:11:03.497Z,17.02
2023-01-03T11:13:41.358Z,22.63
2023-01-03T11:16:17.912Z,19.98
2023-01-03T11:19:02.223Z,31.45
2023-01-03T11:21:39.492Z,23.02
2023-01-03T11:24:37.628Z,23.00
2023-01-03T11:27:08.503Z,38.67
2023-01-03T11:30:10.444Z,59.85
2023-01-03T11:33:14.436Z,21.70
2023-01-03T11:36:13.580Z,15.90
2023-01-03T11:39:26.372Z,19.63
2023-01-03T11:42:03.519Z,16.73
2023-01-03T11:45:08.000Z,19.23
2023-01-03T11:47:53.977Z,16.98
2023-01-03T11:50:39.824Z,21.48
2023-01-03T11:53:10.527Z,24.38
2023-01-03T11:56:20.007Z,19.35
2023-01-03T11:59:06.992Z,18.75
2023-01-03T12:01:49.669Z,15.60
2023-01-03T12:04:36.150Z,18.00
2023-01-03T12:10:19.465Z,17.73
2023-01-03T12:12:55.930Z,22.30
2023-01-03T12:15:28.189Z,20.10
2023-01-03T12:18:17.836Z,24.10
2023-01-03T12:20:51.714Z,18.52
2023-01-03T12:23:31.703Z,16.17
2023-01-03T12:26:06.071Z,18.63
2023-01-03T12:28:42.815Z,18.27
2023-01-03T12:31:27.891Z,17.20
2023-01-03T12:34:21.034Z,12.15
2023-01-03T12:37:08.509Z,15.02
2023-01-03T12:39:56.754Z,17.50
2023-01-03T12:42:48.217Z,12.73
2023-01-03T12:45:34.059Z,10.90
2023-01-03T12:48:14.435Z,13.80
2023-01-03T12:50:51.321Z,14.02
2023-01-03T12:53:32.048Z,15.07
2023-01-03T12:56:09.804Z,25.73
2023-01-03T12:58:44.241Z,37.85
2023-01-03T13:01:15.880Z,13.93
2023-01-03T13:03:55.795Z,20.13
2023-01-03T13:06:39.457Z,26.25
2023-01-03T13:09:32.296Z,27.73
2023-01-03T13:12:25.497Z,18.17
2023-01-03T13:14:54.644Z,15.43
2023-01-03T13:17:27.333Z,23.00
2023-01-03T13:22:52.052Z,16.77
2023-01-03T13:25:41.639Z,12.85
2023-01-03T13:28:18.586Z,13.15
2023-01-03T13:30:46.784Z,13.75
2023-01-03T13:33:16.693Z,6.45
2023-01-03T13:35:44.551Z,9.70
2023-01-03T13:38:24.641Z,9.18
2023-01-03T13:41:23.520Z,9.25
2023-01-03T13:43:53.686Z,19.77
2023-01-03T13:46:32.932Z,15.65
2023-01-03T13:49:06.519Z,17.55
2023-01-03T13:51:40.082Z,16.55
2023-01-03T13:54:13.735Z,13.80
2023-01-03T13:56:44.423Z,19.83
2023-01-03T13:59:15.195Z,28.50
2023-01-03T14:02:04.006Z,37.53
2023-01-03T14:04:47.242Z,57.33
2023-01-03T14:07:57.145Z,32.35
2023-01-03T14:10:39.801Z,57.85
2023-01-03T14:13:32.910Z,44.05
2023-01-03T14:19:17.024Z,54.28
2023-01-03T14:22:28.598Z,13.27
2023-01-03T14:24:59.090Z,29.45
2023-01-03T14:27:36.283Z,16.55
2023-01-03T14:30:05.241Z,62.65
2023-01-03T14:32:37.405Z,28.92
2023-01-03T14:35:05.308Z,20.08
2023-01-03T14:37:35.071Z,15.63
2023-01-03T14:40:05.551Z,11.23
2023-01-03T14:42:33.266Z,11.30
2023-01-03T14:45:03.869Z,10.63
2023-01-03T14:47:40.521Z,7.43
2023-01-03T14:50:28.612Z,7.43
2023-01-03T14:53:02.509Z,8.98
2023-01-03T14:55:32.830Z,9.65
2023-01-03T14:58:06.919Z,6.75
2023-01-03T15:00:36.737Z,10.93
2023-01-03T15:03:05.077Z,7.20
2023-01-03T15:05:38.617Z,7.55
2023-01-03T15:08:12.936Z,8.18
2023-01-03T15:10:52.121Z,9.53
2023-01-03T15:13:45.363Z,8.00
2023-01-03T15:16:32.289Z,6.53
2023-01-03T15:19:09.613Z,8.88
2023-01-03T15:21:38.026Z,6.75
2023-01-03T15:24:11.258Z,8.13
2023-01-03T15:26:46.692Z,8.95
2023-01-03T15:29:24.652Z,9.07
2023-01-03T15:31:55.677Z,10.60
2023-01-03T15:34:29.502Z,14.05
2023-01-03T15:37:04.795Z,13.80
2023-01-03T15:39:53.359Z,10.40
2023-01-03T15:42:48.967Z,12.77
2023-01-03T15:45:25.847Z,11.60
2023-01-03T15:47:58.026Z,7.80
2023-01-03T15:50:42.266Z,9.73
2023-01-03T15:53:45.459Z,9.13
2023-01-03T15:56:27.258Z,9.70
2023-01-03T15:58:56.685Z,9.93
2023-01-03T16:01:28.844Z,9.90
2023-01-03T16:03:56.720Z,11.23
2023-01-03T16:06:24.386Z,16.52
2023-01-03T16:08:53.036Z,14.88
2023-01-03T16:11:31.393Z,20.30
2023-01-03T16:14:23.248Z,16.88
2023-01-03T16:16:54.009Z,11.07
2023-01-03T16:19:24.651Z,7.30
2023-01-03T16:22:32.838Z,6.55
2023-01-03T16:24:43.717Z,9.50
2023-01-03T16:27:20.616Z,11.43
2023-01-03T16:29:48.507Z,10.88
2023-01-03T16:32:28.117Z,6.40
2023-01-03T16:35:07.620Z,7.45
2023-01-03T16:37:37.251Z,10.93
2023-01-03T16:40:05.346Z,8.52
2023-01-03T16:42:32.967Z,7.22
2023-01-03T16:45:00.641Z,7.63
2023-01-03T16:47:34.005Z,8.57
2023-01-03T16:50:06.860Z,12.05
2023-01-03T16:52:38.887Z,11.63
2023-01-03T16:55:28.531Z,14.90
2023-01-03T16:57:57.090Z,14.65
2023-01-03T17:00:30.961Z,11.13
2023-01-03T17:03:00.172Z,6.97
2023-01-03T17:05:36.275Z,7.68
2023-01-03T17:08:22.028Z,8.10
2023-01-03T17:10:54.867Z,10.13
2023-01-03T17:13:26.551Z,8.30
2023-01-03T17:15:59.288Z,8.35
2023-01-03T17:21:29.794Z,10.68
2023-01-03T17:24:07.554Z,12.68
2023-01-03T17:26:36.396Z,10.00
2023-01-03T17:29:10.814Z,11.50
2023-01-03T17:31:38.523Z,6.28
2023-01-03T17:34:19.766Z,12.70
2023-01-03T17:36:47.676Z,7.57
2023-01-03T17:39:15.500Z,11.68
2023-01-03T17:42:01.589Z,9.70
2023-01-03T17:44:29.347Z,11.50
2023-01-03T17:47:41.953Z,10.82
2023-01-03T17:50:10.139Z,18.47
2023-01-03T17:52:38.749Z,11.50
2023-01-03T17:55:18.062Z,14.70
2023-01-03T17:57:46.354Z,12.30
2023-01-03T18:00:17.313Z,11.30
2023-01-03T18:02:45.279Z,9.88
2023-01-03T18:05:18.837Z,9.07
2023-01-03T18:07:52.393Z,12.15
2023-01-03T18:10:28.715Z,8.43
2023-01-03T18:12:56.308Z,13.88
2023-01-03T18:15:24.371Z,15.23
2023-01-03T18:17:53.542Z,15.60
2023-01-03T18:20:21.403Z,22.42
2023-01-03T18:22:49.844Z,21.83
2023-01-03T18:25:23.356Z,14.75
2023-01-03T18:27:58.366Z,11.10
2023-01-03T18:30:26.796Z,6.65
2023-01-03T18:32:55.208Z,8.18
2023-01-03T18:35:29.726Z,6.88
2023-01-03T18:38:00.786Z,12.27
2023-01-03T18:40:29.686Z,18.10
2023-01-03T18:43:09.429Z,29.23
2023-01-03T18:45:40.533Z,32.53
2023-01-03T18:48:21.473Z,12.20
2023-01-03T18:50:57.881Z,15.88
2023-01-03T18:53:31.156Z,18.77
2023-01-03T18:56:00.320Z,19.15
2023-01-03T18:58:35.747Z,18.30
2023-01-03T19:01:04.697Z,10.27
2023-01-03T19:03:34.315Z,17.88
2023-01-03T19:06:03.419Z,11.27
2023-01-03T19:08:33.621Z,12.80
2023-01-03T19:11:25.051Z,10.05
2023-01-03T19:13:55.212Z,9.13
2023-01-03T19:16:25.544Z,7.43
2023-01-03T19:18:53.793Z,9.88
2023-01-03T19:21:22.846Z,9.80
2023-01-03T19:24:03.633Z,9.88
2023-01-03T19:26:53.822Z,11.50
2023-01-03T19:29:28.566Z,9.52
2023-01-03T19:31:57.774Z,6.95
2023-01-03T19:34:27.622Z,6.28
2023-01-03T19:36:55.595Z,9.32
2023-01-03T19:39:27.287Z,9.27
2023-01-03T19:42:17.124Z,7.63
2023-01-03T19:44:46.443Z,11.05
2023-01-03T19:47:17.091Z,8.98
2023-01-03T19:49:47.861Z,10.52
2023-01-03T19:52:19.434Z,12.30
2023-01-03T19:54:47.744Z,20.20
2023-01-03T19:57:31.133Z,14.48
2023-01-03T20:00:02.202Z,21.15
2023-01-03T20:02:40.052Z,33.22
2023-01-03T20:07:45.177Z,72.10
2023-01-03T20:10:22.015Z,77.68
2023-01-03T20:12:57.968Z,33.10
2023-01-03T20:15:35.387Z,29.23
2023-01-03T20:18:05.557Z,20.80
2023-01-03T20:20:34.077Z,24.27
2023-01-03T20:23:14.954Z,22.77
2023-01-03T20:25:44.411Z,35.38
2023-01-03T20:28:29.711Z,34.88
2023-01-03T20:30:59.895Z,35.20
2023-01-03T20:33:29.049Z,30.55
2023-01-03T20:36:12.592Z,28.67
2023-01-03T20:38:48.920Z,20.80
2023-01-03T20:41:18.674Z,8.65
2023-01-03T20:43:49.087Z,9.82
2023-01-03T20:46:22.398Z,8.40
2023-01-03T20:49:02.091Z,7.20
2023-01-03T20:51:31.126Z,14.32
2023-01-03T20:53:59.133Z,5.10
2023-01-03T20:56:27.963Z,5.63
2023-01-03T20:58:55.936Z,7.15
2023-01-03T21:01:23.790Z,3.42
2023-01-03T21:03:53.574Z,4.25
2023-01-03T21:06:24.228Z,5.85
2023-01-03T21:08:55.830Z,3.92
2023-01-03T21:11:39.246Z,3.80
2023-01-03T21:14:07.399Z,3.88
2023-01-03T21:16:44.795Z,4.28
2023-01-03T21:19:18.041Z,6.90
2023-01-03T21:21:51.202Z,6.47
2023-01-03T21:24:20.653Z,2.58
2023-01-03T21:26:48.386Z,3.63
2023-01-03T21:29:16.480Z,5.82
2023-01-03T21:31:46.141Z,6.63
2023-01-03T21:34:18.538Z,5.63
2023-01-03T21:36:47.019Z,5.70
2023-01-03T21:39:15.057Z,4.57
2023-01-03T21:42:01.866Z,2.63
2023-01-03T21:44:29.579Z,3.08
2023-01-03T21:46:57.393Z,3.83
2023-01-03T21:49:25.074Z,3.53
2023-01-03T21:51:52.926Z,3.53
2023-01-03T21:54:21.175Z,4.03
2023-01-03T21:56:49.304Z,3.25
2023-01-03T21:59:17.869Z,2.25
2023-01-03T22:02:07.031Z,3.58
2023-01-03T22:04:35.337Z,3.70
2023-01-03T22:07:05.904Z,4.40
2023-01-03T22:09:52.542Z,2.22
2023-01-03T22:12:20.714Z,4.45
2023-01-03T22:14:48.844Z,4.95
2023-01-03T22:17:16.706Z,4.95
2023-01-03T22:19:44.563Z,5.43
2023-01-03T22:22:12.238Z,4.47
2023-01-03T22:24:39.941Z,2.83
2023-01-03T22:27:07.675Z,4.07
2023-01-03T22:29:35.411Z,3.47
2023-01-03T22:32:03.751Z,3.30
2023-01-03T22:34:31.301Z,4.38
2023-01-03T22:36:58.871Z,2.80
2023-01-03T22:39:26.390Z,2.67
2023-01-03T22:41:54.057Z,2.35
2023-01-03T22:44:21.646Z,2.58
2023-01-03T22:46:49.221Z,3.03
2023-01-03T22:49:16.847Z,2.65
2023-01-03T22:51:46.493Z,3.78
2023-01-03T22:54:15.503Z,2.75
2023-01-03T22:56:43.058Z,4.45
2023-01-03T22:59:10.636Z,3.53
2023-01-03T23:01:38.404Z,4.10
2023-01-03T23:04:08.825Z,3.35
2023-01-03T23:06:36.533Z,3.78
2023-01-03T23:09:04.167Z,8.43
2023-01-03T23:11:51.820Z,2.78
2023-01-03T23:14:21.963Z,3.83
2023-01-03T23:16:53.404Z,4.70
2023-01-03T23:19:24.026Z,3.95
2023-01-03T23:21:52.944Z,3.33
2023-01-03T23:24:24.094Z,4.97
2023-01-03T23:26:52.688Z,3.33
2023-01-03T23:29:21.251Z,2.30
2023-01-03T23:31:48.880Z,4.18
2023-01-03T23:34:16.515Z,4.20
2023-01-03T23:36:44.194Z,2.72
2023-01-03T23:39:13.090Z,2.97
2023-01-03T23:41:41.067Z,1.95
2023-01-03T23:44:09.082Z,2.20
2023-01-03T23:46:36.762Z,2.30
2023-01-03T23:49:04.605Z,1.42
2023-01-03T23:51:32.210Z,3.17
2023-01-03T23:53:59.848Z,2.35
2023-01-03T23:56:27.434Z,4.43
2023-01-03T23:58:55.036Z,3.30
